sensor_id;sensor_type;location;lat;lon;timestamp;pressure;altitude;pressure_sealevel;temperature;humidity
64340;BME280;63709;53.258;-8.814;2023-05-03T00:01:09;102291.09;;;16.02;100.00
64340;BME280;63709;53.258;-8.814;2023-05-03T00:03:34;102287.34;;;16.04;100.00
64340;BME280;63709;53.258;-8.814;2023-05-03T00:06:11;102283.59;;;15.94;100.00
64340;BME280;63709;53.258;-8.814;2023-05-03T00:08:37;102284.72;;;15.91;100.00
64340;BME280;63709;53.258;-8.814;2023-05-03T00:11:03;102292.44;;;15.96;100.00
64340;BME280;63709;53.258;-8.814;2023-05-03T00:13:31;102282.31;;;15.87;100.00
64340;BME280;63709;53.258;-8.814;2023-05-03T00:15:57;102289.94;;;16.06;100.00
64340;BME280;63709;53.258;-8.814;2023-05-03T00:18:22;102286.81;;;15.99;100.00
64340;BME280;63709;53.258;-8.814;2023-05-03T00:20:49;102293.50;;;15.93;100.00
64340;BME280;63709;53.258;-8.814;2023-05-03T00:23:15;102287.91;;;15.96;100.00
64340;BME280;63709;53.258;-8.814;2023-05-03T00:25:41;102284.34;;;15.96;100.00
64340;BME280;63709;53.258;-8.814;2023-05-03T00:28:07;102283.91;;;16.02;100.00
64340;BME280;63709;53.258;-8.814;2023-05-03T00:30:33;102287.34;;;16.04;100.00
64340;BME280;63709;53.258;-8.814;2023-05-03T00:32:58;102276.41;;;15.94;100.00
64340;BME280;63709;53.258;-8.814;2023-05-03T00:35:26;102275.19;;;15.99;100.00
64340;BME280;63709;53.258;-8.814;2023-05-03T00:37:51;102269.91;;;15.97;100.00
64340;BME280;63709;53.258;-8.814;2023-05-03T00:40:17;102262.31;;;15.91;100.00
64340;BME280;63709;53.258;-8.814;2023-05-03T00:42:43;102260.25;;;15.94;100.00
64340;BME280;63709;53.258;-8.814;2023-05-03T00:45:11;102257.41;;;15.96;100.00
64340;BME280;63709;53.258;-8.814;2023-05-03T00:47:37;102267.28;;;15.84;100.00
64340;BME280;63709;53.258;-8.814;2023-05-03T00:50:05;102264.28;;;16.00;100.00
64340;BME280;63709;53.258;-8.814;2023-05-03T00:52:31;102252.16;;;15.94;100.00
64340;BME280;63709;53.258;-8.814;2023-05-03T00:54:57;102256.66;;;15.94;100.00
64340;BME280;63709;53.258;-8.814;2023-05-03T00:57:25;102264.25;;;15.89;100.00
64340;BME280;63709;53.258;-8.814;2023-05-03T00:59:57;102265.94;;;15.90;100.00
64340;BME280;63709;53.258;-8.814;2023-05-03T01:02:26;102244.34;;;15.79;100.00
64340;BME280;63709;53.258;-8.814;2023-05-03T01:04:54;102260.41;;;15.80;100.00
64340;BME280;63709;53.258;-8.814;2023-05-03T01:17:58;102248.03;;;15.78;100.00
64340;BME280;63709;53.258;-8.814;2023-05-03T01:20:30;102255.41;;;15.87;100.00
64340;BME280;63709;53.258;-8.814;2023-05-03T01:23:06;102257.75;;;15.67;100.00
64340;BME280;63709;53.258;-8.814;2023-05-03T01:25:35;102255.13;;;15.79;100.00
64340;BME280;63709;53.258;-8.814;2023-05-03T01:28:01;102240.44;;;15.83;100.00
64340;BME280;63709;53.258;-8.814;2023-05-03T01:30:27;102245.44;;;15.76;100.00
64340;BME280;63709;53.258;-8.814;2023-05-03T01:33:24;102246.53;;;15.61;100.00
64340;BME280;63709;53.258;-8.814;2023-05-03T01:36:20;102231.19;;;15.50;100.00
64340;BME280;63709;53.258;-8.814;2023-05-03T01:38:46;102240.19;;;15.62;100.00
64340;BME280;63709;53.258;-8.814;2023-05-03T01:41:15;102236.44;;;15.52;100.00
64340;BME280;63709;53.258;-8.814;2023-05-03T01:43:41;102230.72;;;15.56;100.00
64340;BME280;63709;53.258;-8.814;2023-05-03T01:46:08;102228.22;;;15.29;100.00
64340;BME280;63709;53.258;-8.814;2023-05-03T01:48:35;102223.56;;;15.44;100.00
64340;BME280;63709;53.258;-8.814;2023-05-03T01:51:01;102221.53;;;15.35;100.00
64340;BME280;63709;53.258;-8.814;2023-05-03T01:53:27;102220.66;;;15.47;100.00
64340;BME280;63709;53.258;-8.814;2023-05-03T01:55:54;102201.91;;;15.45;100.00
64340;BME280;63709;53.258;-8.814;2023-05-03T01:58:19;102189.56;;;15.30;100.00
64340;BME280;63709;53.258;-8.814;2023-05-03T02:00:47;102209.03;;;15.46;100.00
64340;BME280;63709;53.258;-8.814;2023-05-03T02:03:12;102201.59;;;15.50;100.00
64340;BME280;63709;53.258;-8.814;2023-05-03T02:05:38;102195.44;;;15.48;100.00
64340;BME280;63709;53.258;-8.814;2023-05-03T02:08:04;102185.41;;;15.26;100.00
64340;BME280;63709;53.258;-8.814;2023-05-03T02:10:31;102192.34;;;15.41;100.00
64340;BME280;63709;53.258;-8.814;2023-05-03T02:12:57;102188.84;;;15.15;100.00
64340;BME280;63709;53.258;-8.814;2023-05-03T02:15:24;102190.34;;;15.32;100.00
64340;BME280;63709;53.258;-8.814;2023-05-03T02:17:50;102192.69;;;15.37;100.00
64340;BME280;63709;53.258;-8.814;2023-05-03T02:20:16;102193.19;;;15.42;100.00
64340;BME280;63709;53.258;-8.814;2023-05-03T02:22:43;102194.88;;;15.32;100.00
64340;BME280;63709;53.258;-8.814;2023-05-03T02:25:08;102194.47;;;15.49;100.00
64340;BME280;63709;53.258;-8.814;2023-05-03T02:27:34;102204.94;;;15.41;100.00
64340;BME280;63709;53.258;-8.814;2023-05-03T02:30:00;102200.03;;;15.22;100.00
64340;BME280;63709;53.258;-8.814;2023-05-03T02:32:26;102196.03;;;15.28;100.00
64340;BME280;63709;53.258;-8.814;2023-05-03T02:34:51;102199.41;;;15.18;100.00
64340;BME280;63709;53.258;-8.814;2023-05-03T02:37:17;102199.91;;;15.23;100.00
64340;BME280;63709;53.258;-8.814;2023-05-03T02:39:43;102192.00;;;15.09;100.00
64340;BME280;63709;53.258;-8.814;2023-05-03T02:42:09;102178.34;;;14.99;100.00
64340;BME280;63709;53.258;-8.814;2023-05-03T02:44:37;102186.28;;;15.14;100.00
64340;BME280;63709;53.258;-8.814;2023-05-03T02:47:09;102182.31;;;15.07;100.00
64340;BME280;63709;53.258;-8.814;2023-05-03T02:49:35;102184.19;;;14.81;100.00
64340;BME280;63709;53.258;-8.814;2023-05-03T02:52:01;102193.34;;;14.91;100.00
64340;BME280;63709;53.258;-8.814;2023-05-03T02:54:27;102187.41;;;14.86;100.00
64340;BME280;63709;53.258;-8.814;2023-05-03T02:56:53;102191.94;;;14.85;100.00
64340;BME280;63709;53.258;-8.814;2023-05-03T02:59:19;102185.47;;;14.75;100.00
64340;BME280;63709;53.258;-8.814;2023-05-03T03:01:45;102169.56;;;14.85;100.00
64340;BME280;63709;53.258;-8.814;2023-05-03T03:04:12;102188.38;;;14.85;100.00
64340;BME280;63709;53.258;-8.814;2023-05-03T03:06:37;102167.97;;;14.69;100.00
64340;BME280;63709;53.258;-8.814;2023-05-03T03:09:03;102186.69;;;14.58;100.00
64340;BME280;63709;53.258;-8.814;2023-05-03T03:11:30;102183.75;;;14.74;100.00
64340;BME280;63709;53.258;-8.814;2023-05-03T03:13:55;102182.69;;;14.76;100.00
64340;BME280;63709;53.258;-8.814;2023-05-03T03:16:21;102192.13;;;14.82;100.00
64340;BME280;63709;53.258;-8.814;2023-05-03T03:18:47;102170.88;;;14.66;100.00
64340;BME280;63709;53.258;-8.814;2023-05-03T03:21:12;102177.00;;;14.68;100.00
64340;BME280;63709;53.258;-8.814;2023-05-03T03:23:37;102183.56;;;14.77;100.00
64340;BME280;63709;53.258;-8.814;2023-05-03T03:26:04;102170.00;;;14.53;100.00
64340;BME280;63709;53.258;-8.814;2023-05-03T03:28:30;102189.78;;;14.77;100.00
64340;BME280;63709;53.258;-8.814;2023-05-03T03:30:55;102171.81;;;14.52;100.00
64340;BME280;63709;53.258;-8.814;2023-05-03T03:33:22;102178.63;;;14.58;100.00
64340;BME280;63709;53.258;-8.814;2023-05-03T03:35:50;102184.09;;;14.69;100.00
64340;BME280;63709;53.258;-8.814;2023-05-03T03:38:16;102187.72;;;14.43;100.00
64340;BME280;63709;53.258;-8.814;2023-05-03T03:40:41;102181.38;;;14.57;100.00
64340;BME280;63709;53.258;-8.814;2023-05-03T03:43:07;102175.50;;;14.51;100.00
64340;BME280;63709;53.258;-8.814;2023-05-03T03:45:34;102133.00;;;14.31;100.00
64340;BME280;63709;53.258;-8.814;2023-05-03T03:47:59;102182.88;;;14.48;100.00
64340;BME280;63709;53.258;-8.814;2023-05-03T03:50:25;102176.97;;;14.43;100.00
64340;BME280;63709;53.258;-8.814;2023-05-03T03:52:51;102170.59;;;14.31;100.00
64340;BME280;63709;53.258;-8.814;2023-05-03T03:55:16;102166.75;;;14.48;100.00
64340;BME280;63709;53.258;-8.814;2023-05-03T03:57:42;102166.25;;;14.56;100.00
64340;BME280;63709;53.258;-8.814;2023-05-03T04:00:08;102165.34;;;14.42;100.00
64340;BME280;63709;53.258;-8.814;2023-05-03T04:02:34;102148.91;;;14.21;100.00
64340;BME280;63709;53.258;-8.814;2023-05-03T04:05:00;102148.81;;;14.36;100.00
64340;BME280;63709;53.258;-8.814;2023-05-03T04:07:32;102168.47;;;14.36;100.00
64340;BME280;63709;53.258;-8.814;2023-05-03T04:09:58;102147.63;;;14.40;100.00
64340;BME280;63709;53.258;-8.814;2023-05-03T04:12:23;102154.06;;;14.24;100.00
64340;BME280;63709;53.258;-8.814;2023-05-03T04:14:49;102140.00;;;14.34;100.00
64340;BME280;63709;53.258;-8.814;2023-05-03T04:17:15;102151.06;;;14.42;100.00
64340;BME280;63709;53.258;-8.814;2023-05-03T04:19:40;102143.75;;;14.44;100.00
64340;BME280;63709;53.258;-8.814;2023-05-03T04:22:06;102152.88;;;14.28;100.00
64340;BME280;63709;53.258;-8.814;2023-05-03T04:24:32;102143.38;;;14.50;100.00
64340;BME280;63709;53.258;-8.814;2023-05-03T04:26:58;102155.38;;;14.57;100.00
64340;BME280;63709;53.258;-8.814;2023-05-03T04:29:26;102143.13;;;14.53;100.00
64340;BME280;63709;53.258;-8.814;2023-05-03T04:31:53;102148.63;;;14.51;100.00
64340;BME280;63709;53.258;-8.814;2023-05-03T04:34:19;102147.97;;;14.61;100.00
64340;BME280;63709;53.258;-8.814;2023-05-03T04:36:46;102129.38;;;14.32;100.00
64340;BME280;63709;53.258;-8.814;2023-05-03T04:39:13;102144.50;;;14.46;100.00
64340;BME280;63709;53.258;-8.814;2023-05-03T04:41:40;102149.59;;;14.50;100.00
64340;BME280;63709;53.258;-8.814;2023-05-03T04:44:06;102138.06;;;14.36;100.00
64340;BME280;63709;53.258;-8.814;2023-05-03T04:46:32;102139.72;;;14.51;100.00
64340;BME280;63709;53.258;-8.814;2023-05-03T04:48:58;102144.28;;;14.49;100.00
64340;BME280;63709;53.258;-8.814;2023-05-03T04:51:23;102155.38;;;14.57;100.00
64340;BME280;63709;53.258;-8.814;2023-05-03T04:53:49;102147.41;;;14.43;100.00
64340;BME280;63709;53.258;-8.814;2023-05-03T04:56:15;102149.34;;;14.41;100.00
64340;BME280;63709;53.258;-8.814;2023-05-03T04:58:40;102159.25;;;14.53;100.00
64340;BME280;63709;53.258;-8.814;2023-05-03T05:01:07;102146.78;;;14.52;100.00
64340;BME280;63709;53.258;-8.814;2023-05-03T05:03:33;102146.78;;;14.52;100.00
64340;BME280;63709;53.258;-8.814;2023-05-03T05:06:01;102161.72;;;14.56;100.00
64340;BME280;63709;53.258;-8.814;2023-05-03T05:08:27;102151.28;;;14.39;100.00
64340;BME280;63709;53.258;-8.814;2023-05-03T05:10:52;102157.34;;;14.55;100.00
64340;BME280;63709;53.258;-8.814;2023-05-03T05:13:18;102158.06;;;14.57;100.00
64340;BME280;63709;53.258;-8.814;2023-05-03T05:15:43;102150.44;;;14.51;100.00
64340;BME280;63709;53.258;-8.814;2023-05-03T05:18:10;102144.88;;;14.54;100.00
64340;BME280;63709;53.258;-8.814;2023-05-03T05:20:35;102159.25;;;14.66;100.00
64340;BME280;63709;53.258;-8.814;2023-05-03T05:23:01;102161.81;;;14.67;100.00
64340;BME280;63709;53.258;-8.814;2023-05-03T05:25:27;102157.66;;;14.76;100.00
64340;BME280;63709;53.258;-8.814;2023-05-03T05:27:52;102150.66;;;14.73;100.00
64340;BME280;63709;53.258;-8.814;2023-05-03T05:30:17;102156.66;;;14.77;100.00
64340;BME280;63709;53.258;-8.814;2023-05-03T05:32:44;102148.50;;;14.66;100.00
64340;BME280;63709;53.258;-8.814;2023-05-03T05:35:10;102153.34;;;14.73;100.00
64340;BME280;63709;53.258;-8.814;2023-05-03T05:37:36;102142.38;;;14.64;100.00
64340;BME280;63709;53.258;-8.814;2023-05-03T05:40:02;102158.94;;;14.70;100.00
64340;BME280;63709;53.258;-8.814;2023-05-03T05:42:28;102160.13;;;14.66;100.00
64340;BME280;63709;53.258;-8.814;2023-05-03T05:44:54;102149.66;;;14.49;100.00
64340;BME280;63709;53.258;-8.814;2023-05-03T05:47:22;102150.00;;;14.57;100.00
64340;BME280;63709;53.258;-8.814;2023-05-03T05:49:48;102153.88;;;14.53;100.00
64340;BME280;63709;53.258;-8.814;2023-05-03T05:52:14;102159.91;;;14.57;100.00
64340;BME280;63709;53.258;-8.814;2023-05-03T05:54:40;102162.28;;;14.61;100.00
64340;BME280;63709;53.258;-8.814;2023-05-03T05:57:06;102161.94;;;14.53;100.00
64340;BME280;63709;53.258;-8.814;2023-05-03T05:59:33;102147.19;;;14.46;100.00
64340;BME280;63709;53.258;-8.814;2023-05-03T06:01:59;102165.88;;;14.35;100.00
64340;BME280;63709;53.258;-8.814;2023-05-03T06:04:25;102166.56;;;14.51;100.00
64340;BME280;63709;53.258;-8.814;2023-05-03T06:06:52;102140.00;;;14.34;100.00
64340;BME280;63709;53.258;-8.814;2023-05-03T06:09:18;102162.72;;;14.55;100.00
64340;BME280;63709;53.258;-8.814;2023-05-03T06:11:46;102154.28;;;14.47;100.00
64340;BME280;63709;53.258;-8.814;2023-05-03T06:14:13;102167.28;;;14.40;100.00
64340;BME280;63709;53.258;-8.814;2023-05-03T06:16:39;102148.47;;;14.40;100.00
64340;BME280;63709;53.258;-8.814;2023-05-03T06:19:07;102152.97;;;14.27;100.00
64340;BME280;63709;53.258;-8.814;2023-05-03T06:21:38;102158.50;;;14.51;100.00
64340;BME280;63709;53.258;-8.814;2023-05-03T06:24:04;102157.94;;;14.33;100.00
64340;BME280;63709;53.258;-8.814;2023-05-03T06:26:31;102142.25;;;14.40;100.00
64340;BME280;63709;53.258;-8.814;2023-05-03T06:28:57;102158.06;;;14.57;100.00
64340;BME280;63709;53.258;-8.814;2023-05-03T06:31:25;102157.22;;;14.69;100.00
64340;BME280;63709;53.258;-8.814;2023-05-03T06:33:50;102156.66;;;14.77;100.00
64340;BME280;63709;53.258;-8.814;2023-05-03T06:36:18;102158.81;;;14.85;100.00
64340;BME280;63709;53.258;-8.814;2023-05-03T06:38:43;102163.13;;;14.87;100.00
64340;BME280;63709;53.258;-8.814;2023-05-03T06:41:09;102160.91;;;15.05;100.00
64340;BME280;63709;53.258;-8.814;2023-05-03T06:43:36;102153.44;;;14.72;100.00
64340;BME280;63709;53.258;-8.814;2023-05-03T06:46:01;102160.75;;;15.19;100.00
64340;BME280;63709;53.258;-8.814;2023-05-03T06:48:27;102157.44;;;15.16;100.00
64340;BME280;63709;53.258;-8.814;2023-05-03T06:50:53;102147.63;;;14.78;100.00
64340;BME280;63709;53.258;-8.814;2023-05-03T06:53:19;102154.31;;;14.72;100.00
64340;BME280;63709;53.258;-8.814;2023-05-03T06:55:46;102153.81;;;15.04;100.00
64340;BME280;63709;53.258;-8.814;2023-05-03T06:58:11;102147.63;;;14.91;100.00
64340;BME280;63709;53.258;-8.814;2023-05-03T07:00:37;102145.94;;;15.14;100.00
64340;BME280;63709;53.258;-8.814;2023-05-03T07:03:05;102136.47;;;15.08;100.00
64340;BME280;63709;53.258;-8.814;2023-05-03T07:05:31;102150.44;;;15.50;100.00
64340;BME280;63709;53.258;-8.814;2023-05-03T07:08:03;102148.31;;;15.42;100.00
64340;BME280;63709;53.258;-8.814;2023-05-03T07:10:29;102153.56;;;15.81;100.00
64340;BME280;63709;53.258;-8.814;2023-05-03T07:12:56;102143.16;;;15.63;100.00
64340;BME280;63709;53.258;-8.814;2023-05-03T07:15:22;102144.22;;;15.73;100.00
64340;BME280;63709;53.258;-8.814;2023-05-03T07:17:47;102148.00;;;15.95;100.00
64340;BME280;63709;53.258;-8.814;2023-05-03T07:20:14;102138.34;;;15.68;100.00
64340;BME280;63709;53.258;-8.814;2023-05-03T07:22:40;102147.50;;;15.66;100.00
64340;BME280;63709;53.258;-8.814;2023-05-03T07:25:06;102134.88;;;16.02;100.00
64340;BME280;63709;53.258;-8.814;2023-05-03T07:27:33;102129.38;;;15.92;100.00
64340;BME280;63709;53.258;-8.814;2023-05-03T07:29:59;102113.69;;;15.97;100.00
64340;BME280;63709;53.258;-8.814;2023-05-03T07:32:26;102137.53;;;16.26;100.00
64340;BME280;63709;53.258;-8.814;2023-05-03T07:34:52;102111.34;;;16.39;100.00
64340;BME280;63709;53.258;-8.814;2023-05-03T07:37:18;102122.59;;;16.21;100.00
64340;BME280;63709;53.258;-8.814;2023-05-03T07:39:44;102113.53;;;16.34;100.00
64340;BME280;63709;53.258;-8.814;2023-05-03T07:42:11;102116.59;;;16.40;100.00
64340;BME280;63709;53.258;-8.814;2023-05-03T07:44:37;102107.44;;;16.54;100.00
64340;BME280;63709;53.258;-8.814;2023-05-03T07:47:04;102112.94;;;16.75;100.00
64340;BME280;63709;53.258;-8.814;2023-05-03T07:49:31;102093.31;;;16.73;100.00
64340;BME280;63709;53.258;-8.814;2023-05-03T07:52:00;102104.38;;;16.81;100.00
64340;BME280;63709;53.258;-8.814;2023-05-03T07:54:25;102105.44;;;17.01;100.00
64340;BME280;63709;53.258;-8.814;2023-05-03T07:56:51;102105.81;;;17.08;100.00
64340;BME280;63709;53.258;-8.814;2023-05-03T07:59:16;102097.09;;;17.04;100.00
64340;BME280;63709;53.258;-8.814;2023-05-03T08:01:42;102100.78;;;17.03;100.00
64340;BME280;63709;53.258;-8.814;2023-05-03T08:04:07;102092.28;;;17.19;100.00
64340;BME280;63709;53.258;-8.814;2023-05-03T08:06:33;102093.38;;;17.16;100.00
64340;BME280;63709;53.258;-8.814;2023-05-03T08:09:00;102089.75;;;17.38;100.00
64340;BME280;63709;53.258;-8.814;2023-05-03T08:11:27;102092.94;;;17.44;100.00
64340;BME280;63709;53.258;-8.814;2023-05-03T08:13:56;102096.84;;;17.51;100.00
64340;BME280;63709;53.258;-8.814;2023-05-03T08:16:22;102100.09;;;17.65;100.00
64340;BME280;63709;53.258;-8.814;2023-05-03T08:18:47;102091.16;;;17.65;100.00
64340;BME280;63709;53.258;-8.814;2023-05-03T08:21:14;102080.22;;;17.66;100.00
64340;BME280;63709;53.258;-8.814;2023-05-03T08:23:41;102085.81;;;17.75;100.00
64340;BME280;63709;53.258;-8.814;2023-05-03T08:26:06;102077.00;;;17.40;100.00
64340;BME280;63709;53.258;-8.814;2023-05-03T08:28:37;102083.41;;;17.60;100.00
64340;BME280;63709;53.258;-8.814;2023-05-03T08:31:03;102087.63;;;17.53;100.00
64340;BME280;63709;53.258;-8.814;2023-05-03T08:33:30;102065.16;;;17.53;100.00
64340;BME280;63709;53.258;-8.814;2023-05-03T08:35:56;102063.84;;;17.68;100.00
64340;BME280;63709;53.258;-8.814;2023-05-03T08:38:23;102061.31;;;17.66;100.00
64340;BME280;63709;53.258;-8.814;2023-05-03T08:40:54;102078.22;;;17.80;100.00
64340;BME280;63709;53.258;-8.814;2023-05-03T08:43:22;102070.22;;;17.78;100.00
64340;BME280;63709;53.258;-8.814;2023-05-03T08:45:51;102061.53;;;17.42;100.00
64340;BME280;63709;53.258;-8.814;2023-05-03T08:48:17;102063.47;;;17.84;100.00
64340;BME280;63709;53.258;-8.814;2023-05-03T08:50:44;102077.16;;;17.92;100.00
64340;BME280;63709;53.258;-8.814;2023-05-03T08:53:10;102073.13;;;17.86;100.00
64340;BME280;63709;53.258;-8.814;2023-05-03T08:55:36;102073.31;;;17.41;100.00
64340;BME280;63709;53.258;-8.814;2023-05-03T08:58:07;102064.50;;;17.60;100.00
64340;BME280;63709;53.258;-8.814;2023-05-03T09:00:38;102070.09;;;18.01;100.00
64340;BME280;63709;53.258;-8.814;2023-05-03T09:03:06;102070.56;;;17.85;100.00
64340;BME280;63709;53.258;-8.814;2023-05-03T09:05:35;102049.06;;;18.04;100.00
64340;BME280;63709;53.258;-8.814;2023-05-03T09:08:07;102072.63;;;18.23;100.00
64340;BME280;63709;53.258;-8.814;2023-05-03T09:10:40;102070.59;;;18.46;100.00
64340;BME280;63709;53.258;-8.814;2023-05-03T09:13:06;102068.38;;;18.51;100.00
64340;BME280;63709;53.258;-8.814;2023-05-03T09:15:32;102071.69;;;18.65;100.00
64340;BME280;63709;53.258;-8.814;2023-05-03T09:18:18;102063.28;;;18.58;100.00
64340;BME280;63709;53.258;-8.814;2023-05-03T09:20:46;102058.88;;;18.67;100.00
64340;BME280;63709;53.258;-8.814;2023-05-03T09:23:18;102055.25;;;18.77;100.00
64340;BME280;63709;53.258;-8.814;2023-05-03T09:25:47;102036.19;;;18.98;100.00
64340;BME280;63709;53.258;-8.814;2023-05-03T09:28:13;102042.47;;;18.99;100.00
64340;BME280;63709;53.258;-8.814;2023-05-03T09:30:41;102033.31;;;18.71;100.00
64340;BME280;63709;53.258;-8.814;2023-05-03T09:33:09;102039.91;;;18.97;100.00
64340;BME280;63709;53.258;-8.814;2023-05-03T09:35:37;102031.84;;;18.67;100.00
64340;BME280;63709;53.258;-8.814;2023-05-03T09:38:03;102035.50;;;19.16;100.00
64340;BME280;63709;53.258;-8.814;2023-05-03T09:40:28;102023.69;;;19.17;100.00
64340;BME280;63709;53.258;-8.814;2023-05-03T09:43:08;102035.97;;;19.40;100.00
64340;BME280;63709;53.258;-8.814;2023-05-03T09:45:35;102015.41;;;19.28;100.00
64340;BME280;63709;53.258;-8.814;2023-05-03T09:48:04;102028.38;;;19.24;100.00
64340;BME280;63709;53.258;-8.814;2023-05-03T09:50:34;102025.09;;;19.50;100.00
64340;BME280;63709;53.258;-8.814;2023-05-03T09:53:03;102015.13;;;19.50;100.00
64340;BME280;63709;53.258;-8.814;2023-05-03T09:55:36;102034.22;;;19.78;100.00
64340;BME280;63709;53.258;-8.814;2023-05-03T09:58:03;102028.25;;;19.84;100.00
64340;BME280;63709;53.258;-8.814;2023-05-03T10:00:40;102026.66;;;19.91;100.00
64340;BME280;63709;53.258;-8.814;2023-05-03T10:03:08;102022.66;;;19.86;100.00
64340;BME280;63709;53.258;-8.814;2023-05-03T10:05:49;102025.75;;;20.00;100.00
64340;BME280;63709;53.258;-8.814;2023-05-03T10:08:59;102030.91;;;20.03;100.00
64340;BME280;63709;53.258;-8.814;2023-05-03T10:11:26;102023.88;;;20.11;100.00
64340;BME280;63709;53.258;-8.814;2023-05-03T10:13:54;102028.59;;;20.09;100.00
64340;BME280;63709;53.258;-8.814;2023-05-03T10:16:25;102034.28;;;20.15;100.00
64340;BME280;63709;53.258;-8.814;2023-05-03T10:19:12;102037.72;;;20.08;100.00
64340;BME280;63709;53.258;-8.814;2023-05-03T10:21:53;102026.53;;;20.20;100.00
64340;BME280;63709;53.258;-8.814;2023-05-03T10:24:20;102039.31;;;20.10;100.00
64340;BME280;63709;53.258;-8.814;2023-05-03T10:26:48;102033.16;;;20.08;100.00
64340;BME280;63709;53.258;-8.814;2023-05-03T10:32:04;102036.31;;;20.03;100.00
64340;BME280;63709;53.258;-8.814;2023-05-03T10:34:34;102029.25;;;20.20;100.00
64340;BME280;63709;53.258;-8.814;2023-05-03T10:37:01;102033.94;;;20.28;100.00
64340;BME280;63709;53.258;-8.814;2023-05-03T10:39:29;102018.06;;;19.96;100.00
64340;BME280;63709;53.258;-8.814;2023-05-03T10:42:04;102033.88;;;20.47;100.00
64340;BME280;63709;53.258;-8.814;2023-05-03T10:44:39;102036.00;;;20.53;100.00
64340;BME280;63709;53.258;-8.814;2023-05-03T10:47:12;102038.28;;;20.58;100.00
64340;BME280;63709;53.258;-8.814;2023-05-03T10:49:39;102024.00;;;20.46;100.00
64340;BME280;63709;53.258;-8.814;2023-05-03T10:55:16;102042.63;;;20.69;100.00
64340;BME280;63709;53.258;-8.814;2023-05-03T10:57:46;102019.59;;;20.55;100.00
64340;BME280;63709;53.258;-8.814;2023-05-03T11:00:35;102032.69;;;20.22;100.00
64340;BME280;63709;53.258;-8.814;2023-05-03T11:05:42;102022.66;;;20.70;100.00
64340;BME280;63709;53.258;-8.814;2023-05-03T11:08:19;102034.72;;;20.75;100.00
64340;BME280;63709;53.258;-8.814;2023-05-03T11:10:49;102028.75;;;20.72;100.00
64340;BME280;63709;53.258;-8.814;2023-05-03T11:13:21;102009.28;;;20.59;100.00
64340;BME280;63709;53.258;-8.814;2023-05-03T11:15:47;102022.00;;;20.58;100.00
64340;BME280;63709;53.258;-8.814;2023-05-03T11:18:14;102010.59;;;20.72;100.00
64340;BME280;63709;53.258;-8.814;2023-05-03T11:20:40;102004.81;;;20.85;100.00
64340;BME280;63709;53.258;-8.814;2023-05-03T11:23:06;102010.03;;;20.96;100.00
64340;BME280;63709;53.258;-8.814;2023-05-03T11:25:33;102000.09;;;21.05;100.00
64340;BME280;63709;53.258;-8.814;2023-05-03T11:28:00;102011.97;;;21.04;100.00
64340;BME280;63709;53.258;-8.814;2023-05-03T11:30:27;101991.94;;;20.87;100.00
64340;BME280;63709;53.258;-8.814;2023-05-03T11:32:53;102013.19;;;21.10;100.00
64340;BME280;63709;53.258;-8.814;2023-05-03T11:35:27;101995.22;;;21.09;100.00
64340;BME280;63709;53.258;-8.814;2023-05-03T11:37:53;101981.25;;;21.03;100.00
64340;BME280;63709;53.258;-8.814;2023-05-03T11:40:19;101989.16;;;21.33;100.00
64340;BME280;63709;53.258;-8.814;2023-05-03T11:42:53;101996.47;;;21.32;100.00
64340;BME280;63709;53.258;-8.814;2023-05-03T11:45:21;101989.47;;;21.30;100.00
64340;BME280;63709;53.258;-8.814;2023-05-03T11:47:47;101979.09;;;21.25;100.00
64340;BME280;63709;53.258;-8.814;2023-05-03T11:50:14;101967.75;;;21.12;100.00
64340;BME280;63709;53.258;-8.814;2023-05-03T11:52:40;101974.19;;;21.11;100.00
64340;BME280;63709;53.258;-8.814;2023-05-03T11:55:07;101983.44;;;21.18;100.00
64340;BME280;63709;53.258;-8.814;2023-05-03T11:57:35;101984.59;;;21.15;100.00
64340;BME280;63709;53.258;-8.814;2023-05-03T12:00:14;101983.50;;;20.90;100.00
64340;BME280;63709;53.258;-8.814;2023-05-03T12:02:47;101973.66;;;20.89;100.00
64340;BME280;63709;53.258;-8.814;2023-05-03T12:05:16;101967.63;;;20.95;100.00
64340;BME280;63709;53.258;-8.814;2023-05-03T12:07:43;101972.78;;;21.24;100.00
64340;BME280;63709;53.258;-8.814;2023-05-03T12:10:16;101962.25;;;20.86;100.00
64340;BME280;63709;53.258;-8.814;2023-05-03T12:12:54;101946.03;;;21.12;100.00
64340;BME280;63709;53.258;-8.814;2023-05-03T12:15:29;101951.38;;;20.86;100.00
64340;BME280;63709;53.258;-8.814;2023-05-03T12:18:00;101942.22;;;21.05;100.00
64340;BME280;63709;53.258;-8.814;2023-05-03T12:20:28;101958.88;;;21.27;100.00
64340;BME280;63709;53.258;-8.814;2023-05-03T12:23:01;101938.78;;;21.20;100.00
64340;BME280;63709;53.258;-8.814;2023-05-03T12:25:28;101947.03;;;21.29;100.00
64340;BME280;63709;53.258;-8.814;2023-05-03T12:27:56;101942.53;;;21.37;100.00
64340;BME280;63709;53.258;-8.814;2023-05-03T12:30:25;101931.91;;;21.44;100.00
64340;BME280;63709;53.258;-8.814;2023-05-03T12:32:52;101938.19;;;21.44;100.00
64340;BME280;63709;53.258;-8.814;2023-05-03T12:35:19;101941.31;;;21.58;100.00
64340;BME280;63709;53.258;-8.814;2023-05-03T12:37:46;101932.31;;;21.57;100.00
64340;BME280;63709;53.258;-8.814;2023-05-03T12:40:15;101916.97;;;21.30;100.00
64340;BME280;63709;53.258;-8.814;2023-05-03T12:42:42;101919.28;;;20.99;100.00
64340;BME280;63709;53.258;-8.814;2023-05-03T12:45:11;101934.56;;;21.18;100.00
64340;BME280;63709;53.258;-8.814;2023-05-03T12:47:40;101902.34;;;21.05;100.00
64340;BME280;63709;53.258;-8.814;2023-05-03T12:50:06;101921.81;;;21.36;100.00
64340;BME280;63709;53.258;-8.814;2023-05-03T12:52:34;101896.72;;;20.81;100.00